Terminal Aerodrome Forecast
Issued by NWS

Home | Current Version | Previous Version | Graphics & Text | Print | Product List | Glossary On
Versions: 1 2 3 4 5 6 7 8 9 10 11 12 13 14 15 16 17 18
000
FTUS43 KICT 302336
TAFRSL
TAF
KRSL 302336Z 3100/3124 01011KT P6SM FEW035
     FM310100 08005KT P6SM SKC
     FM311500 16011KT P6SM SCT060=

USA.gov is the U.S. government's official web portal to all federal, state and local government web resources and services.